createdAt,value
2018-11-27T00:00:34.439Z,2.37
2018-11-27T00:03:05.841Z,2.36
2018-11-27T00:05:36.172Z,2.32
2018-11-27T00:08:05.636Z,2.23
2018-11-27T00:10:37.167Z,2.21
2018-11-27T00:13:06.327Z,2.23
2018-11-27T00:15:35.573Z,2.19
2018-11-27T00:18:04.755Z,2.12
2018-11-27T00:20:33.649Z,2.16
2018-11-27T00:23:02.481Z,2.14
2018-11-27T00:25:31.392Z,2.12
2018-11-27T00:28:00.259Z,2.16
2018-11-27T00:30:29.091Z,2.07
2018-11-27T00:32:57.999Z,2.02
2018-11-27T00:35:26.898Z,1.98
2018-11-27T00:37:55.918Z,1.96
2018-11-27T00:40:24.830Z,1.97
2018-11-27T00:42:53.631Z,2.00
2018-11-27T00:45:22.663Z,2.07
2018-11-27T00:47:52.204Z,1.93
2018-11-27T00:50:23.219Z,1.87
2018-11-27T00:52:52.155Z,2.06
2018-11-27T00:55:21.993Z,1.92
2018-11-27T00:57:52.302Z,1.91
2018-11-27T01:00:24.619Z,1.91
2018-11-27T01:02:53.649Z,1.81
2018-11-27T01:05:23.808Z,1.85
2018-11-27T01:07:53.020Z,1.82
2018-11-27T01:10:23.524Z,1.95
2018-11-27T01:12:53.131Z,1.90
2018-11-27T01:15:22.244Z,1.92
2018-11-27T01:17:55.046Z,1.70
2018-11-27T01:20:24.475Z,1.55
2018-11-27T01:22:53.698Z,1.65
2018-11-27T01:25:22.595Z,1.50
2018-11-27T01:27:51.580Z,1.62
2018-11-27T01:30:22.378Z,1.62
2018-11-27T01:32:51.579Z,1.68
2018-11-27T01:35:22.387Z,1.66
2018-11-27T01:37:52.930Z,1.49
2018-11-27T01:40:23.477Z,1.60
2018-11-27T01:42:53.775Z,1.68
2018-11-27T01:45:23.073Z,1.43
2018-11-27T01:47:52.280Z,1.36
2018-11-27T01:50:21.472Z,1.43
2018-11-27T01:52:50.416Z,1.38
2018-11-27T01:55:21.738Z,1.31
2018-11-27T01:57:50.588Z,1.11
2018-11-27T02:00:29.103Z,1.08
2018-11-27T02:02:59.003Z,1.11
2018-11-27T02:05:28.415Z,1.02
2018-11-27T02:07:57.714Z,1.01
2018-11-27T02:10:26.679Z,0.99
2018-11-27T02:13:00.937Z,1.04
2018-11-27T02:15:28.833Z,0.94
2018-11-27T02:17:57.908Z,0.94
2018-11-27T02:20:26.747Z,0.80
2018-11-27T02:22:55.703Z,0.63
2018-11-27T02:25:27.225Z,0.45
2018-11-27T02:27:56.378Z,0.56
2018-11-27T02:30:26.359Z,0.50
2018-11-27T02:32:55.340Z,0.67
2018-11-27T02:35:25.484Z,0.52
2018-11-27T02:37:56.782Z,0.57
2018-11-27T02:40:25.817Z,0.68
2018-11-27T02:42:54.800Z,0.62
2018-11-27T02:45:24.708Z,0.67
2018-11-27T02:47:54.509Z,0.72
2018-11-27T02:50:24.586Z,0.61
2018-11-27T02:52:53.565Z,0.52
2018-11-27T02:55:23.996Z,0.53
2018-11-27T02:57:52.906Z,0.49
2018-11-27T03:00:23.604Z,0.58
2018-11-27T03:02:52.504Z,0.56
2018-11-27T03:05:33.319Z,0.46
2018-11-27T03:08:02.353Z,0.31
2018-11-27T03:10:31.260Z,0.19
2018-11-27T03:13:00.172Z,0.25
2018-11-27T03:15:29.143Z,0.24
2018-11-27T03:17:58.090Z,0.24
2018-11-27T03:20:27.381Z,0.30
2018-11-27T03:22:56.276Z,0.25
2018-11-27T03:25:25.139Z,0.26
2018-11-27T03:27:54.548Z,0.24
2018-11-27T03:30:25.379Z,0.32
2018-11-27T03:32:54.417Z,0.26
2018-11-27T03:35:24.604Z,0.21
2018-11-27T03:37:53.659Z,0.21
2018-11-27T03:40:25.317Z,0.18
2018-11-27T03:42:54.455Z,0.12
2018-11-27T03:45:24.215Z,0.03
2018-11-27T03:47:53.203Z,0.03
2018-11-27T03:50:27.707Z,0.00
2018-11-27T03:52:56.704Z,0.00
2018-11-27T03:55:25.608Z,0.10
2018-11-27T03:57:54.561Z,-0.01
2018-11-27T04:00:29.315Z,-0.11
2018-11-27T04:03:05.916Z,-0.02
2018-11-27T04:05:35.101Z,0.00
2018-11-27T04:08:04.574Z,-0.04
2018-11-27T04:10:33.460Z,-0.02
2018-11-27T04:13:02.494Z,0.10
2018-11-27T04:15:31.347Z,0.02
2018-11-27T04:18:00.268Z,-0.11
2018-11-27T04:20:29.145Z,-0.05
2018-11-27T04:22:57.982Z,-0.04
2018-11-27T04:25:26.895Z,-0.03
2018-11-27T04:27:56.521Z,0.02
2018-11-27T04:30:25.572Z,-0.01
2018-11-27T04:32:54.421Z,0.12
2018-11-27T04:35:23.273Z,0.22
2018-11-27T04:37:52.174Z,0.11
2018-11-27T04:40:22.104Z,0.00
2018-11-27T04:42:51.111Z,0.08
2018-11-27T04:45:23.079Z,-0.02
2018-11-27T04:47:51.885Z,-0.02
2018-11-27T04:50:21.027Z,0.15
2018-11-27T04:52:49.976Z,-0.12
2018-11-27T04:55:20.343Z,-0.09
2018-11-27T04:57:51.633Z,-0.19
2018-11-27T05:00:25.304Z,-0.13
2018-11-27T05:02:54.245Z,-0.05
2018-11-27T05:05:23.295Z,-0.04
2018-11-27T05:07:52.607Z,-0.09
2018-11-27T05:10:23.334Z,-0.25
2018-11-27T05:12:52.292Z,-0.12
2018-11-27T05:15:24.680Z,-0.20
2018-11-27T05:17:56.316Z,-0.21
2018-11-27T05:20:25.322Z,-0.24
2018-11-27T05:22:54.648Z,-0.42
2018-11-27T05:25:23.553Z,-0.24
2018-11-27T05:27:55.087Z,-0.40
2018-11-27T05:30:25.904Z,-0.62
2018-11-27T05:32:54.944Z,-0.43
2018-11-27T05:35:31.647Z,-0.39
2018-11-27T05:38:02.403Z,-0.26
2018-11-27T05:40:31.397Z,-0.23
2018-11-27T05:43:09.451Z,-0.24
2018-11-27T05:45:38.357Z,-0.35
2018-11-27T05:48:07.408Z,-0.24
2018-11-27T05:50:36.363Z,-0.24
2018-11-27T05:53:05.833Z,-0.11
2018-11-27T05:55:34.768Z,-0.18
2018-11-27T05:58:03.639Z,-0.16
2018-11-27T06:00:32.494Z,-0.40
2018-11-27T06:03:01.866Z,-0.42
2018-11-27T06:05:30.867Z,-0.44
2018-11-27T06:07:59.716Z,-0.29
2018-11-27T06:10:28.629Z,-0.35
2018-11-27T06:12:57.773Z,-0.31
2018-11-27T06:15:26.804Z,-0.43
2018-11-27T06:17:59.587Z,-0.34
2018-11-27T06:20:28.519Z,-0.44
2018-11-27T06:22:57.412Z,-0.36
2018-11-27T06:25:27.999Z,-0.46
2018-11-27T06:28:01.875Z,-0.25
2018-11-27T06:30:32.273Z,-0.12
2018-11-27T06:33:01.163Z,-0.10
2018-11-27T06:35:36.369Z,-0.20
2018-11-27T06:38:07.593Z,-0.12
2018-11-27T06:40:36.719Z,-0.16
2018-11-27T06:43:08.847Z,0.02
2018-11-27T06:45:38.158Z,-0.02
2018-11-27T06:48:07.730Z,0.00
2018-11-27T06:50:36.729Z,-0.17
2018-11-27T06:53:07.335Z,-0.12
2018-11-27T06:55:36.466Z,-0.28
2018-11-27T06:58:07.447Z,-0.28
2018-11-27T07:00:36.512Z,-0.22
2018-11-27T07:03:09.700Z,-0.23
2018-11-27T07:05:39.050Z,-0.22
2018-11-27T07:08:09.031Z,-0.23
2018-11-27T07:10:40.103Z,-0.23
2018-11-27T07:13:16.893Z,-0.18
2018-11-27T07:15:46.296Z,-0.17
2018-11-27T07:18:15.241Z,-0.01
2018-11-27T07:20:44.258Z,-0.19
2018-11-27T07:23:13.124Z,-0.21
2018-11-27T07:25:42.045Z,-0.06
2018-11-27T07:28:10.922Z,-0.02
2018-11-27T07:30:41.276Z,-0.06
2018-11-27T07:33:10.252Z,0.01
2018-11-27T07:35:39.103Z,-0.09
2018-11-27T07:38:07.977Z,-0.09
2018-11-27T07:40:36.968Z,-0.13
2018-11-27T07:43:10.828Z,-0.12
2018-11-27T07:45:40.361Z,-0.09
2018-11-27T07:48:09.958Z,-0.10
2018-11-27T07:50:38.832Z,-0.13
2018-11-27T07:53:08.076Z,-0.11
2018-11-27T07:55:36.935Z,-0.25
2018-11-27T07:58:06.649Z,-0.15
2018-11-27T08:00:36.230Z,0.02
2018-11-27T08:03:06.329Z,-0.13
2018-11-27T08:05:41.068Z,0.11
2018-11-27T08:08:13.205Z,0.21
2018-11-27T08:10:43.153Z,0.04
2018-11-27T08:13:12.242Z,0.09
2018-11-27T08:15:41.141Z,0.05
2018-11-27T08:18:11.420Z,-0.02
2018-11-27T08:20:40.351Z,-0.10
2018-11-27T08:23:10.724Z,0.07
2018-11-27T08:25:39.599Z,0.02
2018-11-27T08:28:08.557Z,0.08
2018-11-27T08:30:37.520Z,0.06
2018-11-27T08:33:06.899Z,0.10
2018-11-27T08:35:35.847Z,0.06
2018-11-27T08:38:05.092Z,0.06
2018-11-27T08:40:34.543Z,-0.03
2018-11-27T08:43:03.688Z,-0.04
2018-11-27T08:45:32.639Z,0.02
2018-11-27T08:48:01.480Z,0.05
2018-11-27T08:50:30.405Z,0.10
2018-11-27T08:53:02.250Z,0.24
2018-11-27T08:55:35.101Z,0.27
2018-11-27T08:58:13.404Z,0.37
2018-11-27T09:00:42.614Z,0.15
2018-11-27T09:03:11.472Z,0.25
2018-11-27T09:05:40.359Z,0.32
2018-11-27T09:08:09.365Z,0.15
2018-11-27T09:10:38.199Z,0.19
2018-11-27T09:13:07.452Z,0.31
2018-11-27T09:15:37.068Z,0.30
2018-11-27T09:18:15.817Z,0.19
2018-11-27T09:20:44.978Z,0.38
2018-11-27T09:23:13.861Z,0.44
2018-11-27T09:25:42.711Z,0.59
2018-11-27T09:28:11.931Z,0.34
2018-11-27T09:30:40.785Z,0.36
2018-11-27T09:33:09.854Z,0.53
2018-11-27T09:35:38.742Z,0.44
2018-11-27T09:38:08.416Z,0.33
2018-11-27T09:40:37.939Z,0.37
2018-11-27T09:43:07.254Z,0.52
2018-11-27T09:45:38.083Z,0.45
2018-11-27T09:48:07.066Z,0.58
2018-11-27T09:50:35.919Z,0.40
2018-11-27T09:53:06.710Z,0.73
2018-11-27T09:55:35.578Z,0.74
2018-11-27T09:58:05.146Z,0.59
2018-11-27T10:00:34.059Z,0.74
2018-11-27T10:03:05.608Z,0.79
2018-11-27T10:05:34.957Z,0.96
2018-11-27T10:08:04.950Z,0.73
2018-11-27T10:10:34.180Z,0.87
2018-11-27T10:13:03.036Z,0.94
2018-11-27T10:15:32.063Z,0.84
2018-11-27T10:18:01.959Z,0.78
2018-11-27T10:20:37.828Z,1.02
2018-11-27T10:23:12.600Z,1.21
2018-11-27T10:25:41.516Z,1.23
2018-11-27T10:28:10.378Z,1.36
2018-11-27T10:30:39.248Z,1.10
2018-11-27T10:33:10.340Z,1.13
2018-11-27T10:35:47.971Z,1.05
2018-11-27T10:38:17.235Z,1.04
2018-11-27T10:40:46.558Z,1.11
2018-11-27T10:43:19.756Z,1.14
2018-11-27T10:45:44.560Z,1.13
2018-11-27T10:48:13.865Z,1.24
2018-11-27T10:50:42.741Z,1.19
2018-11-27T10:53:12.542Z,1.22
2018-11-27T10:55:41.487Z,1.36
2018-11-27T10:58:10.609Z,1.39
2018-11-27T11:00:46.038Z,1.27
2018-11-27T11:03:45.635Z,1.32
2018-11-27T11:06:14.592Z,1.54
2018-11-27T11:08:43.465Z,1.41
2018-11-27T11:11:12.440Z,1.52
2018-11-27T11:13:41.432Z,1.61
2018-11-27T11:16:10.588Z,1.69
2018-11-27T11:18:39.503Z,1.82
2018-11-27T11:21:08.479Z,1.94
2018-11-27T11:23:37.346Z,1.81
2018-11-27T11:26:07.050Z,2.01
2018-11-27T11:28:35.868Z,1.89
2018-11-27T11:31:06.652Z,2.15
2018-11-27T11:33:34.635Z,2.25
2018-11-27T11:36:03.489Z,2.17
2018-11-27T11:38:32.309Z,2.15
2018-11-27T11:41:01.216Z,2.22
2018-11-27T11:43:30.140Z,2.30
2018-11-27T11:45:59.014Z,2.55
2018-11-27T11:48:27.911Z,2.68
2018-11-27T11:50:56.762Z,2.49
2018-11-27T11:53:25.597Z,2.44
2018-11-27T11:55:54.616Z,2.61
2018-11-27T11:58:23.487Z,2.77
2018-11-27T12:00:53.576Z,2.94
2018-11-27T12:03:22.582Z,3.07
2018-11-27T12:05:51.544Z,2.88
2018-11-27T12:08:20.586Z,3.11
2018-11-27T12:10:49.769Z,3.23
2018-11-27T12:13:18.736Z,3.13
2018-11-27T12:15:47.646Z,3.12
2018-11-27T12:18:16.573Z,3.19
2018-11-27T12:20:45.572Z,3.27
2018-11-27T12:23:14.473Z,3.20
2018-11-27T12:25:43.406Z,3.25
2018-11-27T12:28:14.613Z,3.34
2018-11-27T12:30:41.192Z,3.38
2018-11-27T12:33:10.189Z,3.39
2018-11-27T12:35:39.046Z,3.37
2018-11-27T12:38:07.936Z,3.40
2018-11-27T12:40:37.147Z,3.46
2018-11-27T12:43:06.523Z,3.49
2018-11-27T12:45:35.904Z,3.32
2018-11-27T12:48:05.060Z,3.39
2018-11-27T12:50:43.370Z,3.39
2018-11-27T12:53:16.781Z,3.36
2018-11-27T12:55:45.882Z,3.28
2018-11-27T12:58:14.770Z,3.39
2018-11-27T13:00:43.680Z,3.50
2018-11-27T13:03:12.694Z,3.63
2018-11-27T13:05:43.707Z,3.44
2018-11-27T13:08:15.757Z,3.30
2018-11-27T13:10:44.675Z,3.38
2018-11-27T13:13:13.574Z,3.39
2018-11-27T13:15:43.704Z,3.43
2018-11-27T13:18:12.719Z,3.33
2018-11-27T13:20:42.270Z,3.32
2018-11-27T13:23:11.638Z,3.25
2018-11-27T13:25:40.628Z,3.23
2018-11-27T13:28:11.854Z,3.12
2018-11-27T13:30:53.768Z,3.15
2018-11-27T13:33:26.393Z,2.99
2018-11-27T13:35:55.259Z,3.01
2018-11-27T13:38:24.252Z,2.88
2018-11-27T13:40:53.293Z,2.96
2018-11-27T13:43:28.831Z,3.03
2018-11-27T13:45:59.766Z,2.92
2018-11-27T13:48:28.653Z,2.94
2018-11-27T13:50:58.011Z,2.86
2018-11-27T13:53:26.977Z,2.82
2018-11-27T13:55:55.891Z,2.80
2018-11-27T13:58:24.799Z,2.83
2018-11-27T14:00:53.738Z,2.83
2018-11-27T14:03:22.718Z,2.82
2018-11-27T14:05:51.619Z,2.81
2018-11-27T14:08:20.509Z,2.69
2018-11-27T14:10:49.434Z,2.72
2018-11-27T14:13:18.289Z,2.71
2018-11-27T14:15:47.249Z,2.83
2018-11-27T14:18:16.259Z,2.57
2018-11-27T14:20:46.076Z,2.54
2018-11-27T14:23:14.151Z,2.44
2018-11-27T14:25:43.058Z,2.57
2018-11-27T14:28:12.012Z,2.46
2018-11-27T14:30:40.923Z,2.26
2018-11-27T14:33:10.163Z,2.25
2018-11-27T14:35:39.090Z,2.31
2018-11-27T14:38:08.010Z,2.24
2018-11-27T14:40:37.052Z,2.19
2018-11-27T14:43:06.387Z,2.25
2018-11-27T14:45:35.374Z,2.22
2018-11-27T14:48:04.566Z,2.05
2018-11-27T14:50:33.725Z,2.02
2018-11-27T14:53:02.660Z,1.99
2018-11-27T14:55:33.716Z,1.93
2018-11-27T14:58:02.652Z,1.92
2018-11-27T15:00:31.843Z,1.77
2018-11-27T15:03:01.079Z,1.93
2018-11-27T15:05:36.076Z,1.88
2018-11-27T15:08:13.031Z,1.75
2018-11-27T15:10:41.978Z,1.69
2018-11-27T15:13:12.701Z,1.67
2018-11-27T15:15:41.739Z,1.60
2018-11-27T15:18:10.626Z,1.57
2018-11-27T15:20:39.563Z,1.58
2018-11-27T15:23:08.416Z,1.56
2018-11-27T15:25:37.300Z,1.55
2018-11-27T15:28:06.366Z,1.44
2018-11-27T15:30:37.901Z,1.31
2018-11-27T15:33:07.947Z,1.34
2018-11-27T15:35:37.813Z,1.39
2018-11-27T15:38:07.483Z,1.44
2018-11-27T15:40:38.468Z,1.45
2018-11-27T15:43:07.768Z,1.28
2018-11-27T15:45:36.622Z,1.22
2018-11-27T15:48:08.149Z,1.23
2018-11-27T15:50:37.152Z,1.30
2018-11-27T15:53:06.400Z,1.24
2018-11-27T15:55:37.872Z,1.29
2018-11-27T15:58:14.940Z,1.13
2018-11-27T16:00:44.436Z,1.08
2018-11-27T16:03:13.412Z,0.89
2018-11-27T16:05:45.148Z,0.88
2018-11-27T16:08:15.079Z,0.77
2018-11-27T16:10:44.040Z,0.67
2018-11-27T16:13:12.984Z,0.53
2018-11-27T16:15:41.927Z,0.64
2018-11-27T16:18:11.814Z,0.50
2018-11-27T16:20:40.684Z,0.68
2018-11-27T16:23:09.719Z,0.44
2018-11-27T16:25:38.684Z,0.32
2018-11-27T16:28:07.816Z,0.40
2018-11-27T16:30:37.048Z,0.14
2018-11-27T16:33:06.717Z,0.19
2018-11-27T16:35:35.885Z,0.29
2018-11-27T16:38:05.270Z,0.43
2018-11-27T16:40:36.865Z,-0.13
2018-11-27T16:43:06.021Z,-0.20
2018-11-27T16:45:34.995Z,-0.21
2018-11-27T16:48:03.950Z,-0.27
2018-11-27T16:50:33.188Z,-0.43
2018-11-27T16:53:02.163Z,-0.46
2018-11-27T16:55:31.026Z,-0.27
2018-11-27T16:57:59.950Z,-0.49
2018-11-27T17:00:31.608Z,-0.31
2018-11-27T17:03:04.851Z,-0.23
2018-11-27T17:05:37.396Z,-0.15
2018-11-27T17:08:06.617Z,-0.12
2018-11-27T17:10:35.895Z,-0.10
2018-11-27T17:13:07.743Z,-0.09
2018-11-27T17:15:36.675Z,-0.07
2018-11-27T17:18:05.818Z,-0.09
2018-11-27T17:20:37.925Z,-0.07
2018-11-27T17:23:12.044Z,-0.06
2018-11-27T17:25:40.986Z,-0.07
2018-11-27T17:28:18.012Z,-0.09
2018-11-27T17:31:00.878Z,-0.04
2018-11-27T17:33:38.669Z,-0.06
2018-11-27T17:36:09.583Z,-0.07
2018-11-27T17:38:38.519Z,-0.13
2018-11-27T17:41:08.523Z,-0.19
2018-11-27T17:43:37.869Z,-0.21
2018-11-27T17:46:07.539Z,-0.26
2018-11-27T17:48:36.426Z,-0.24
2018-11-27T17:51:06.071Z,-0.29
2018-11-27T17:53:34.930Z,-0.06
2018-11-27T17:56:03.965Z,-0.15
2018-11-27T17:58:32.839Z,-0.19
2018-11-27T18:01:01.721Z,-0.35
2018-11-27T18:03:30.684Z,-0.29
2018-11-27T18:05:59.628Z,-0.31
2018-11-27T18:08:29.428Z,-0.28
2018-11-27T18:10:58.306Z,-0.37
2018-11-27T18:13:27.163Z,-0.35
2018-11-27T18:15:56.102Z,-0.33
2018-11-27T18:18:26.015Z,-0.45
2018-11-27T18:20:54.903Z,-0.45
2018-11-27T18:23:23.807Z,-0.60
2018-11-27T18:25:52.679Z,-0.64
2018-11-27T18:28:21.521Z,-0.55
2018-11-27T18:30:50.556Z,-0.54
2018-11-27T18:33:19.432Z,-0.68
2018-11-27T18:35:48.304Z,-0.57
2018-11-27T18:38:17.237Z,-0.57
2018-11-27T18:40:46.123Z,-0.57
2018-11-27T18:43:14.957Z,-0.62
2018-11-27T18:45:43.906Z,-0.72
2018-11-27T18:48:12.837Z,-0.72
2018-11-27T18:50:41.721Z,-0.61
2018-11-27T18:53:10.802Z,-0.68
2018-11-27T18:55:39.614Z,-0.71
2018-11-27T18:58:08.984Z,-0.72
2018-11-27T19:00:37.848Z,-0.81
2018-11-27T19:03:06.727Z,-0.81
2018-11-27T19:05:35.621Z,-0.78
2018-11-27T19:08:04.720Z,-0.79
2018-11-27T19:10:33.959Z,-0.80
2018-11-27T19:13:02.961Z,-0.79
2018-11-27T19:15:38.296Z,-0.80
2018-11-27T19:18:25.555Z,-0.85
2018-11-27T19:20:54.611Z,-0.83
2018-11-27T19:23:25.330Z,-0.93
2018-11-27T19:25:54.230Z,-0.89
2018-11-27T19:28:23.191Z,-0.84
2018-11-27T19:30:52.380Z,-0.97
2018-11-27T19:33:21.307Z,-0.80
2018-11-27T19:35:50.264Z,-0.87
2018-11-27T19:38:20.440Z,-0.88
2018-11-27T19:40:49.318Z,-0.86
2018-11-27T19:43:18.184Z,-0.97
2018-11-27T19:45:47.182Z,-0.95
2018-11-27T19:48:16.993Z,-0.88
2018-11-27T19:50:45.831Z,-0.95
2018-11-27T19:53:15.878Z,-0.93
2018-11-27T19:55:45.495Z,-0.85
2018-11-27T19:58:14.585Z,-1.03
2018-11-27T20:00:43.481Z,-0.91
2018-11-27T20:03:12.840Z,-0.90
2018-11-27T20:05:41.916Z,-0.97
2018-11-27T20:08:14.925Z,-0.96
2018-11-27T20:10:44.144Z,-0.87
2018-11-27T20:13:13.147Z,-0.96
2018-11-27T20:15:42.312Z,-0.92
2018-11-27T20:18:11.201Z,-1.03
2018-11-27T20:20:40.088Z,-1.25
2018-11-27T20:23:09.806Z,-1.29
2018-11-27T20:25:38.661Z,-1.50
2018-11-27T20:28:08.763Z,-1.50
2018-11-27T20:30:40.097Z,-1.61
2018-11-27T20:33:09.053Z,-1.54
2018-11-27T20:35:37.874Z,-1.52
2018-11-27T20:38:09.238Z,-1.61
2018-11-27T20:40:39.365Z,-1.68
2018-11-27T20:43:08.628Z,-1.74
2018-11-27T20:45:38.129Z,-1.98
2018-11-27T20:48:14.425Z,-1.91
2018-11-27T20:50:43.802Z,-1.95
2018-11-27T20:53:13.883Z,-1.93
2018-11-27T20:55:43.267Z,-1.69
2018-11-27T20:58:12.183Z,-1.87
2018-11-27T21:00:42.962Z,-1.71
2018-11-27T21:03:12.571Z,-1.78
2018-11-27T21:05:41.431Z,-1.86
2018-11-27T21:08:11.108Z,-1.70
2018-11-27T21:10:40.215Z,-1.72
2018-11-27T21:13:11.337Z,-1.55
2018-11-27T21:15:42.479Z,-1.72
2018-11-27T21:18:12.426Z,-1.82
2018-11-27T21:20:42.374Z,-1.63
2018-11-27T21:23:11.511Z,-1.68
2018-11-27T21:25:40.602Z,-1.77
2018-11-27T21:28:14.558Z,-1.69
2018-11-27T21:30:45.121Z,-1.79
2018-11-27T21:33:14.006Z,-1.75
2018-11-27T21:35:42.923Z,-1.56
2018-11-27T21:38:11.786Z,-1.77
2018-11-27T21:40:40.723Z,-1.72
2018-11-27T21:43:09.787Z,-1.67
2018-11-27T21:45:38.735Z,-1.74
2018-11-27T21:48:08.264Z,-1.71
2018-11-27T21:50:39.024Z,-1.85
2018-11-27T21:53:07.986Z,-1.90
2018-11-27T21:55:38.092Z,-1.84
2018-11-27T21:58:07.460Z,-1.86
2018-11-27T22:00:37.187Z,-1.90
2018-11-27T22:03:07.514Z,-1.89
2018-11-27T22:05:36.795Z,-2.07
2018-11-27T22:08:07.295Z,-1.95
2018-11-27T22:10:36.618Z,-2.06
2018-11-27T22:13:07.956Z,-2.09
2018-11-27T22:15:39.025Z,-2.15
2018-11-27T22:18:09.435Z,-2.07
2018-11-27T22:20:38.393Z,-2.00
2018-11-27T22:23:08.543Z,-1.86
2018-11-27T22:25:37.522Z,-1.73
2018-11-27T22:28:08.034Z,-1.72
2018-11-27T22:30:37.373Z,-1.71
2018-11-27T22:33:07.984Z,-1.60
2018-11-27T22:35:37.088Z,-1.72
2018-11-27T22:38:07.213Z,-1.60
2018-11-27T22:40:36.125Z,-1.56
2018-11-27T22:43:07.130Z,-1.52
2018-11-27T22:45:38.255Z,-1.54
2018-11-27T22:48:10.271Z,-1.56
2018-11-27T22:50:39.166Z,-1.64
2018-11-27T22:53:09.048Z,-1.63
2018-11-27T22:55:37.933Z,-1.60
2018-11-27T22:58:07.990Z,-1.68
2018-11-27T23:00:42.438Z,-1.76
2018-11-27T23:03:11.484Z,-1.78
2018-11-27T23:05:40.389Z,-1.87
2018-11-27T23:08:09.337Z,-1.83
2018-11-27T23:10:40.080Z,-1.99
2018-11-27T23:13:08.965Z,-2.05
2018-11-27T23:15:37.954Z,-2.17
2018-11-27T23:18:07.012Z,-2.12
2018-11-27T23:20:36.003Z,-2.27
2018-11-27T23:23:05.157Z,-2.23
2018-11-27T23:25:34.203Z,-2.16
2018-11-27T23:28:03.267Z,-2.11
2018-11-27T23:30:32.231Z,-2.11
2018-11-27T23:33:01.031Z,-2.04
2018-11-27T23:35:29.891Z,-2.16
2018-11-27T23:37:58.775Z,-2.16
2018-11-27T23:40:27.805Z,-2.13
2018-11-27T23:42:56.615Z,-2.17
2018-11-27T23:45:25.548Z,-2.05
2018-11-27T23:47:54.721Z,-2.20
2018-11-27T23:50:23.594Z,-2.33
2018-11-27T23:52:52.525Z,-2.25
2018-11-27T23:55:21.402Z,-2.18
2018-11-27T23:57:50.615Z,-2.13
